sensor_id;sensor_type;location;lat;lon;timestamp;pressure;altitude;pressure_sealevel;temperature;humidity
5595;BME280;1003;48.002;7.788;2023-07-29T00:00:49;98214.63;;;18.15;100.00
5595;BME280;1003;48.002;7.788;2023-07-29T00:03:16;98220.25;;;18.20;100.00
5595;BME280;1003;48.002;7.788;2023-07-29T00:05:44;98212.53;;;18.22;100.00
5595;BME280;1003;48.002;7.788;2023-07-29T00:08:11;98207.44;;;18.22;100.00
5595;BME280;1003;48.002;7.788;2023-07-29T00:10:39;98201.56;;;18.21;100.00
5595;BME280;1003;48.002;7.788;2023-07-29T00:13:08;98200.72;;;18.21;100.00
5595;BME280;1003;48.002;7.788;2023-07-29T00:15:35;98205.91;;;18.19;100.00
5595;BME280;1003;48.002;7.788;2023-07-29T00:18:02;98196.00;;;18.15;100.00
5595;BME280;1003;48.002;7.788;2023-07-29T00:20:29;98193.63;;;18.12;100.00
5595;BME280;1003;48.002;7.788;2023-07-29T00:22:56;98190.16;;;18.13;100.00
5595;BME280;1003;48.002;7.788;2023-07-29T00:25:24;98205.41;;;18.13;100.00
5595;BME280;1003;48.002;7.788;2023-07-29T00:27:56;98191.63;;;18.17;100.00
5595;BME280;1003;48.002;7.788;2023-07-29T00:30:23;98193.19;;;18.19;100.00
5595;BME280;1003;48.002;7.788;2023-07-29T00:32:50;98144.88;;;18.19;100.00
5595;BME280;1003;48.002;7.788;2023-07-29T00:35:17;98202.38;;;18.22;100.00
5595;BME280;1003;48.002;7.788;2023-07-29T00:37:44;98200.53;;;18.24;100.00
5595;BME280;1003;48.002;7.788;2023-07-29T00:40:16;98193.56;;;18.27;100.00
5595;BME280;1003;48.002;7.788;2023-07-29T00:42:46;98189.94;;;18.31;100.00
5595;BME280;1003;48.002;7.788;2023-07-29T00:45:14;98182.31;;;18.31;100.00
5595;BME280;1003;48.002;7.788;2023-07-29T00:47:42;98183.28;;;18.29;100.00
5595;BME280;1003;48.002;7.788;2023-07-29T00:50:13;98195.34;;;18.11;100.00
5595;BME280;1003;48.002;7.788;2023-07-29T00:52:41;98200.78;;;18.05;100.00
5595;BME280;1003;48.002;7.788;2023-07-29T00:55:09;98199.66;;;17.95;100.00
5595;BME280;1003;48.002;7.788;2023-07-29T00:57:36;98207.53;;;17.90;100.00
5595;BME280;1003;48.002;7.788;2023-07-29T01:00:06;98210.97;;;17.89;100.00
5595;BME280;1003;48.002;7.788;2023-07-29T01:02:36;98202.44;;;17.90;100.00
5595;BME280;1003;48.002;7.788;2023-07-29T01:05:04;98202.53;;;17.89;100.00
5595;BME280;1003;48.002;7.788;2023-07-29T01:07:41;98200.81;;;17.89;100.00
5595;BME280;1003;48.002;7.788;2023-07-29T01:10:26;98202.28;;;17.93;100.00
5595;BME280;1003;48.002;7.788;2023-07-29T01:13:05;98109.69;;;17.97;100.00
5595;BME280;1003;48.002;7.788;2023-07-29T01:15:41;98107.78;;;18.01;100.00
5595;BME280;1003;48.002;7.788;2023-07-29T01:18:20;98100.81;;;18.04;100.00
5595;BME280;1003;48.002;7.788;2023-07-29T01:20:54;98106.78;;;18.03;100.00
5595;BME280;1003;48.002;7.788;2023-07-29T01:23:30;98105.97;;;18.03;100.00
5595;BME280;1003;48.002;7.788;2023-07-29T01:25:57;98103.03;;;17.95;100.00
5595;BME280;1003;48.002;7.788;2023-07-29T01:28:25;98113.47;;;17.90;100.00
5595;BME280;1003;48.002;7.788;2023-07-29T01:31:05;98110.22;;;17.88;100.00
5595;BME280;1003;48.002;7.788;2023-07-29T01:33:40;98119.38;;;17.91;100.00
5595;BME280;1003;48.002;7.788;2023-07-29T01:36:18;98131.38;;;17.89;100.00
5595;BME280;1003;48.002;7.788;2023-07-29T01:38:49;98118.56;;;17.90;100.00
5595;BME280;1003;48.002;7.788;2023-07-29T01:41:20;98115.03;;;17.93;100.00
5595;BME280;1003;48.002;7.788;2023-07-29T01:43:48;98117.59;;;17.93;100.00
5595;BME280;1003;48.002;7.788;2023-07-29T01:46:15;98121.75;;;17.94;100.00
5595;BME280;1003;48.002;7.788;2023-07-29T01:48:43;98114.03;;;17.95;100.00
5595;BME280;1003;48.002;7.788;2023-07-29T01:51:12;98107.22;;;17.96;100.00
5595;BME280;1003;48.002;7.788;2023-07-29T01:53:39;98096.06;;;17.98;100.00
5595;BME280;1003;48.002;7.788;2023-07-29T01:56:08;98102.59;;;18.02;100.00
5595;BME280;1003;48.002;7.788;2023-07-29T01:58:35;98095.88;;;18.01;100.00
5595;BME280;1003;48.002;7.788;2023-07-29T02:01:02;98101.72;;;18.03;100.00
5595;BME280;1003;48.002;7.788;2023-07-29T02:03:29;98098.34;;;18.03;100.00
5595;BME280;1003;48.002;7.788;2023-07-29T02:05:56;98100.91;;;18.03;100.00
5595;BME280;1003;48.002;7.788;2023-07-29T02:08:23;98095.53;;;18.07;100.00
5595;BME280;1003;48.002;7.788;2023-07-29T02:10:50;98096.34;;;18.08;100.00
5595;BME280;1003;48.002;7.788;2023-07-29T02:13:18;98095.34;;;18.10;100.00
5595;BME280;1003;48.002;7.788;2023-07-29T02:15:45;98092.81;;;18.10;100.00
5595;BME280;1003;48.002;7.788;2023-07-29T02:18:12;98093.38;;;18.16;100.00
5595;BME280;1003;48.002;7.788;2023-07-29T02:20:39;98080.44;;;18.19;100.00
5595;BME280;1003;48.002;7.788;2023-07-29T02:23:07;98087.91;;;18.22;100.00
5595;BME280;1003;48.002;7.788;2023-07-29T02:25:35;98090.34;;;18.23;100.00
5595;BME280;1003;48.002;7.788;2023-07-29T02:28:03;98089.47;;;18.24;100.00
5595;BME280;1003;48.002;7.788;2023-07-29T02:30:31;98083.47;;;18.25;100.00
5595;BME280;1003;48.002;7.788;2023-07-29T02:32:58;98068.22;;;18.25;100.00
5595;BME280;1003;48.002;7.788;2023-07-29T02:35:27;98062.22;;;18.26;100.00
5595;BME280;1003;48.002;7.788;2023-07-29T02:37:54;98067.28;;;18.26;100.00
5595;BME280;1003;48.002;7.788;2023-07-29T02:40:21;98067.19;;;18.28;100.00
5595;BME280;1003;48.002;7.788;2023-07-29T02:42:48;98054.47;;;18.28;100.00
5595;BME280;1003;48.002;7.788;2023-07-29T02:45:15;98055.94;;;18.32;100.00
5595;BME280;1003;48.002;7.788;2023-07-29T02:47:44;98053.50;;;18.30;100.00
5595;BME280;1003;48.002;7.788;2023-07-29T02:50:11;98056.84;;;18.31;100.00
5595;BME280;1003;48.002;7.788;2023-07-29T02:52:38;98049.28;;;18.29;100.00
5595;BME280;1003;48.002;7.788;2023-07-29T02:55:06;98052.03;;;18.26;100.00
5595;BME280;1003;48.002;7.788;2023-07-29T02:57:33;98046.25;;;18.24;100.00
5595;BME280;1003;48.002;7.788;2023-07-29T03:00:00;98048.94;;;18.21;100.00
5595;BME280;1003;48.002;7.788;2023-07-29T03:02:27;98054.41;;;18.15;100.00
5595;BME280;1003;48.002;7.788;2023-07-29T03:04:55;98055.38;;;18.13;100.00
5595;BME280;1003;48.002;7.788;2023-07-29T03:07:22;98055.59;;;18.09;100.00
5595;BME280;1003;48.002;7.788;2023-07-29T03:09:49;98057.94;;;17.98;100.00
5595;BME280;1003;48.002;7.788;2023-07-29T03:12:16;98060.00;;;17.92;100.00
5595;BME280;1003;48.002;7.788;2023-07-29T03:14:47;98062.81;;;17.87;100.00
5595;BME280;1003;48.002;7.788;2023-07-29T03:17:14;98062.81;;;17.87;100.00
5595;BME280;1003;48.002;7.788;2023-07-29T03:19:41;98063.91;;;17.83;100.00
5595;BME280;1003;48.002;7.788;2023-07-29T03:22:09;98072.25;;;17.85;100.00
5595;BME280;1003;48.002;7.788;2023-07-29T03:24:36;98061.47;;;17.81;100.00
5595;BME280;1003;48.002;7.788;2023-07-29T03:27:04;98060.00;;;17.77;100.00
5595;BME280;1003;48.002;7.788;2023-07-29T03:29:32;98058.34;;;17.76;100.00
5595;BME280;1003;48.002;7.788;2023-07-29T03:31:59;98071.94;;;17.75;100.00
5595;BME280;1003;48.002;7.788;2023-07-29T03:34:26;98078.69;;;17.76;100.00
5595;BME280;1003;48.002;7.788;2023-07-29T03:36:53;98083.94;;;17.73;100.00
5595;BME280;1003;48.002;7.788;2023-07-29T03:39:22;98104.16;;;17.75;100.00
5595;BME280;1003;48.002;7.788;2023-07-29T03:41:49;98106.94;;;17.70;100.00
5595;BME280;1003;48.002;7.788;2023-07-29T03:44:16;98118.34;;;17.63;100.00
5595;BME280;1003;48.002;7.788;2023-07-29T03:46:44;98118.34;;;17.63;100.00
5595;BME280;1003;48.002;7.788;2023-07-29T03:49:11;98119.00;;;17.67;100.00
5595;BME280;1003;48.002;7.788;2023-07-29T03:51:38;98129.19;;;17.67;100.00
5595;BME280;1003;48.002;7.788;2023-07-29T03:54:05;98134.25;;;17.67;100.00
5595;BME280;1003;48.002;7.788;2023-07-29T03:56:33;98146.97;;;17.67;100.00
5595;BME280;1003;48.002;7.788;2023-07-29T03:59:02;98151.06;;;17.69;100.00
5595;BME280;1003;48.002;7.788;2023-07-29T04:01:29;98150.13;;;17.70;100.00
5595;BME280;1003;48.002;7.788;2023-07-29T04:03:58;98158.53;;;17.72;100.00
5595;BME280;1003;48.002;7.788;2023-07-29T04:06:25;98160.91;;;17.75;100.00
5595;BME280;1003;48.002;7.788;2023-07-29T04:08:53;98158.91;;;17.80;100.00
5595;BME280;1003;48.002;7.788;2023-07-29T04:11:20;98169.91;;;17.81;100.00
5595;BME280;1003;48.002;7.788;2023-07-29T04:13:49;98171.56;;;17.82;100.00
5595;BME280;1003;48.002;7.788;2023-07-29T04:16:16;98184.28;;;17.82;100.00
5595;BME280;1003;48.002;7.788;2023-07-29T04:18:43;98178.38;;;17.81;100.00
5595;BME280;1003;48.002;7.788;2023-07-29T04:21:10;98191.91;;;17.82;100.00
5595;BME280;1003;48.002;7.788;2023-07-29T04:23:38;98195.88;;;17.86;100.00
5595;BME280;1003;48.002;7.788;2023-07-29T04:26:06;98201.53;;;17.91;100.00
5595;BME280;1003;48.002;7.788;2023-07-29T04:28:33;98213.84;;;17.99;100.00
5595;BME280;1003;48.002;7.788;2023-07-29T04:31:01;98218.31;;;18.09;100.00
5595;BME280;1003;48.002;7.788;2023-07-29T04:33:30;98266.50;;;18.27;100.00
5595;BME280;1003;48.002;7.788;2023-07-29T04:35:57;98278.78;;;18.34;100.00
5595;BME280;1003;48.002;7.788;2023-07-29T04:38:32;98282.47;;;18.45;100.00
5595;BME280;1003;48.002;7.788;2023-07-29T04:40:59;98281.03;;;18.55;100.00
5595;BME280;1003;48.002;7.788;2023-07-29T04:43:27;98298.25;;;18.66;100.00
5595;BME280;1003;48.002;7.788;2023-07-29T04:45:54;98291.84;;;18.74;100.00
5595;BME280;1003;48.002;7.788;2023-07-29T04:48:23;98298.97;;;18.83;100.00
5595;BME280;1003;48.002;7.788;2023-07-29T04:50:50;98285.66;;;18.93;100.00
5595;BME280;1003;48.002;7.788;2023-07-29T04:53:17;98279.13;;;19.03;100.00
5595;BME280;1003;48.002;7.788;2023-07-29T04:55:45;98277.78;;;19.11;100.00
5595;BME280;1003;48.002;7.788;2023-07-29T04:58:12;98272.97;;;19.21;100.00
5595;BME280;1003;48.002;7.788;2023-07-29T05:00:39;98270.22;;;19.24;100.00
5595;BME280;1003;48.002;7.788;2023-07-29T05:03:06;98279.41;;;19.27;100.00
5595;BME280;1003;48.002;7.788;2023-07-29T05:05:34;98277.41;;;19.32;100.00
5595;BME280;1003;48.002;7.788;2023-07-29T05:08:01;98266.91;;;19.36;100.00
5595;BME280;1003;48.002;7.788;2023-07-29T05:10:28;98262.91;;;19.47;100.00
5595;BME280;1003;48.002;7.788;2023-07-29T05:12:55;98258.16;;;19.55;100.00
5595;BME280;1003;48.002;7.788;2023-07-29T05:15:22;98244.25;;;19.60;100.00
5595;BME280;1003;48.002;7.788;2023-07-29T05:17:49;98239.59;;;19.67;100.00
5595;BME280;1003;48.002;7.788;2023-07-29T05:20:16;98227.91;;;19.77;100.00
5595;BME280;1003;48.002;7.788;2023-07-29T05:22:45;98218.34;;;19.81;100.00
5595;BME280;1003;48.002;7.788;2023-07-29T05:25:12;98223.66;;;19.90;100.00
5595;BME280;1003;48.002;7.788;2023-07-29T05:27:39;98209.22;;;20.04;100.00
5595;BME280;1003;48.002;7.788;2023-07-29T05:30:08;98205.88;;;20.16;100.00
5595;BME280;1003;48.002;7.788;2023-07-29T05:32:35;98205.97;;;20.27;100.00
5595;BME280;1003;48.002;7.788;2023-07-29T05:35:02;98196.81;;;20.37;100.00
5595;BME280;1003;48.002;7.788;2023-07-29T05:37:29;98188.75;;;20.43;100.00
5595;BME280;1003;48.002;7.788;2023-07-29T05:39:58;98187.00;;;20.44;100.00
5595;BME280;1003;48.002;7.788;2023-07-29T05:42:25;98183.25;;;20.50;100.00
5595;BME280;1003;48.002;7.788;2023-07-29T05:44:52;98170.31;;;20.53;100.00
5595;BME280;1003;48.002;7.788;2023-07-29T05:47:19;98270.09;;;20.62;100.00
5595;BME280;1003;48.002;7.788;2023-07-29T05:49:46;98277.84;;;20.74;100.00
5595;BME280;1003;48.002;7.788;2023-07-29T05:52:13;98271.22;;;20.84;100.00
5595;BME280;1003;48.002;7.788;2023-07-29T05:54:40;98272.31;;;20.92;100.00
5595;BME280;1003;48.002;7.788;2023-07-29T05:57:09;98283.47;;;21.04;100.00
5595;BME280;1003;48.002;7.788;2023-07-29T05:59:37;98296.25;;;21.17;100.00
5595;BME280;1003;48.002;7.788;2023-07-29T06:02:05;98299.53;;;21.32;100.00
5595;BME280;1003;48.002;7.788;2023-07-29T06:04:32;98326.41;;;21.37;100.00
5595;BME280;1003;48.002;7.788;2023-07-29T06:06:59;98333.16;;;21.38;100.00
5595;BME280;1003;48.002;7.788;2023-07-29T06:09:26;98327.22;;;21.38;100.00
5595;BME280;1003;48.002;7.788;2023-07-29T06:11:53;98379.16;;;21.38;100.00
5595;BME280;1003;48.002;7.788;2023-07-29T06:14:21;98366.06;;;21.30;100.00
5595;BME280;1003;48.002;7.788;2023-07-29T06:16:48;98364.41;;;21.29;100.00
5595;BME280;1003;48.002;7.788;2023-07-29T06:19:15;98373.00;;;21.28;100.00
5595;BME280;1003;48.002;7.788;2023-07-29T06:21:42;98359.53;;;21.26;100.00
5595;BME280;1003;48.002;7.788;2023-07-29T06:24:09;98370.97;;;21.20;100.00
5595;BME280;1003;48.002;7.788;2023-07-29T06:26:36;98361.75;;;21.18;100.00
5595;BME280;1003;48.002;7.788;2023-07-29T06:29:03;98371.34;;;21.14;100.00
5595;BME280;1003;48.002;7.788;2023-07-29T06:31:32;98364.44;;;21.16;100.00
5595;BME280;1003;48.002;7.788;2023-07-29T06:33:59;98360.63;;;21.22;100.00
5595;BME280;1003;48.002;7.788;2023-07-29T06:36:26;98356.53;;;21.19;100.00
5595;BME280;1003;48.002;7.788;2023-07-29T06:38:54;98378.50;;;21.09;100.00
5595;BME280;1003;48.002;7.788;2023-07-29T06:41:21;98368.50;;;21.06;100.00
5595;BME280;1003;48.002;7.788;2023-07-29T06:51:11;98337.44;;;21.00;100.00
5595;BME280;1003;48.002;7.788;2023-07-29T06:53:38;98337.31;;;21.01;100.00
5595;BME280;1003;48.002;7.788;2023-07-29T06:56:05;98336.72;;;21.10;100.00
5595;BME280;1003;48.002;7.788;2023-07-29T06:58:32;98328.03;;;21.13;100.00
5595;BME280;1003;48.002;7.788;2023-07-29T07:00:59;98333.16;;;21.26;100.00
5595;BME280;1003;48.002;7.788;2023-07-29T07:03:26;98330.22;;;21.32;100.00
5595;BME280;1003;48.002;7.788;2023-07-29T07:05:53;98326.00;;;21.43;100.00
5595;BME280;1003;48.002;7.788;2023-07-29T07:08:21;98318.91;;;21.47;100.00
5595;BME280;1003;48.002;7.788;2023-07-29T07:10:48;98317.69;;;21.53;100.00
5595;BME280;1003;48.002;7.788;2023-07-29T07:13:15;98323.28;;;21.70;100.00
5595;BME280;1003;48.002;7.788;2023-07-29T07:15:42;98332.09;;;21.66;100.00
5595;BME280;1003;48.002;7.788;2023-07-29T07:18:10;98326.47;;;21.98;100.00
5595;BME280;1003;48.002;7.788;2023-07-29T07:20:37;98322.34;;;21.95;100.00
5595;BME280;1003;48.002;7.788;2023-07-29T07:23:04;98312.88;;;22.57;100.00
5595;BME280;1003;48.002;7.788;2023-07-29T07:25:35;98327.09;;;23.41;100.00
5595;BME280;1003;48.002;7.788;2023-07-29T07:28:03;98356.50;;;24.25;100.00
5595;BME280;1003;48.002;7.788;2023-07-29T07:30:30;98390.50;;;24.17;100.00
5595;BME280;1003;48.002;7.788;2023-07-29T07:32:57;98437.09;;;23.90;100.00
5595;BME280;1003;48.002;7.788;2023-07-29T07:35:24;98461.38;;;23.97;100.00
5595;BME280;1003;48.002;7.788;2023-07-29T07:37:51;98491.53;;;24.61;100.00
5595;BME280;1003;48.002;7.788;2023-07-29T07:40:18;98523.53;;;25.00;100.00
5595;BME280;1003;48.002;7.788;2023-07-29T07:42:46;98544.69;;;25.36;100.00
5595;BME280;1003;48.002;7.788;2023-07-29T07:45:13;98573.50;;;25.72;100.00
5595;BME280;1003;48.002;7.788;2023-07-29T07:47:41;98602.34;;;26.38;100.00
5595;BME280;1003;48.002;7.788;2023-07-29T07:50:08;98516.06;;;27.02;100.00
5595;BME280;1003;48.002;7.788;2023-07-29T07:52:35;98421.06;;;27.54;100.00
5595;BME280;1003;48.002;7.788;2023-07-29T07:55:03;98444.81;;;27.67;100.00
5595;BME280;1003;48.002;7.788;2023-07-29T07:57:30;98499.56;;;28.08;100.00
5595;BME280;1003;48.002;7.788;2023-07-29T07:59:59;98526.66;;;28.31;100.00
5595;BME280;1003;48.002;7.788;2023-07-29T08:02:26;98520.00;;;28.56;100.00
5595;BME280;1003;48.002;7.788;2023-07-29T08:04:53;98529.03;;;28.70;100.00
5595;BME280;1003;48.002;7.788;2023-07-29T08:07:20;98542.72;;;28.80;100.00
5595;BME280;1003;48.002;7.788;2023-07-29T08:09:47;98552.19;;;28.89;100.00
5595;BME280;1003;48.002;7.788;2023-07-29T08:12:14;98597.25;;;28.69;100.00
5595;BME280;1003;48.002;7.788;2023-07-29T08:14:41;98596.16;;;28.44;100.00
5595;BME280;1003;48.002;7.788;2023-07-29T08:17:09;98600.03;;;28.20;100.00
5595;BME280;1003;48.002;7.788;2023-07-29T08:19:36;98607.34;;;27.59;100.00
5595;BME280;1003;48.002;7.788;2023-07-29T08:22:04;98603.56;;;27.24;100.00
5595;BME280;1003;48.002;7.788;2023-07-29T08:24:32;98595.78;;;26.55;100.00
5595;BME280;1003;48.002;7.788;2023-07-29T08:27:00;98602.47;;;26.36;100.00
5595;BME280;1003;48.002;7.788;2023-07-29T08:29:27;98613.44;;;26.29;100.00
5595;BME280;1003;48.002;7.788;2023-07-29T08:31:54;98645.00;;;26.82;100.00
5595;BME280;1003;48.002;7.788;2023-07-29T08:34:23;98648.97;;;27.06;100.00
5595;BME280;1003;48.002;7.788;2023-07-29T08:36:50;98669.59;;;26.86;100.00
5595;BME280;1003;48.002;7.788;2023-07-29T08:39:17;98693.56;;;26.77;100.00
5595;BME280;1003;48.002;7.788;2023-07-29T08:41:54;98679.13;;;27.05;100.00
5595;BME280;1003;48.002;7.788;2023-07-29T08:44:30;98665.06;;;27.38;100.00
5595;BME280;1003;48.002;7.788;2023-07-29T08:46:59;98673.13;;;27.74;100.00
5595;BME280;1003;48.002;7.788;2023-07-29T08:49:29;98675.41;;;28.16;100.00
5595;BME280;1003;48.002;7.788;2023-07-29T08:51:58;98667.13;;;28.59;100.00
5595;BME280;1003;48.002;7.788;2023-07-29T08:54:26;98675.63;;;28.79;100.00
5595;BME280;1003;48.002;7.788;2023-07-29T08:56:54;98683.13;;;28.72;100.00
5595;BME280;1003;48.002;7.788;2023-07-29T08:59:22;98680.91;;;28.50;100.00
5595;BME280;1003;48.002;7.788;2023-07-29T09:01:50;98682.38;;;27.96;100.00
5595;BME280;1003;48.002;7.788;2023-07-29T09:04:21;98679.22;;;27.54;100.00
5595;BME280;1003;48.002;7.788;2023-07-29T09:06:51;98681.25;;;27.31;100.00
5595;BME280;1003;48.002;7.788;2023-07-29T09:09:21;98676.91;;;27.41;100.00
5595;BME280;1003;48.002;7.788;2023-07-29T09:11:48;98680.03;;;27.44;100.00
5595;BME280;1003;48.002;7.788;2023-07-29T09:14:16;98671.72;;;27.31;100.00
5595;BME280;1003;48.002;7.788;2023-07-29T09:16:44;98662.06;;;27.33;100.00
5595;BME280;1003;48.002;7.788;2023-07-29T09:19:11;98664.66;;;27.24;100.00
5595;BME280;1003;48.002;7.788;2023-07-29T09:21:39;98649.84;;;27.16;100.00
5595;BME280;1003;48.002;7.788;2023-07-29T09:24:08;98648.56;;;27.01;100.00
5595;BME280;1003;48.002;7.788;2023-07-29T09:26:36;98641.22;;;26.86;100.00
5595;BME280;1003;48.002;7.788;2023-07-29T09:29:03;98637.41;;;26.90;100.00
5595;BME280;1003;48.002;7.788;2023-07-29T09:31:30;98634.66;;;27.13;100.00
5595;BME280;1003;48.002;7.788;2023-07-29T09:33:59;98635.84;;;27.09;100.00
5595;BME280;1003;48.002;7.788;2023-07-29T09:36:27;98648.50;;;27.31;100.00
5595;BME280;1003;48.002;7.788;2023-07-29T09:38:55;98649.72;;;27.27;100.00
5595;BME280;1003;48.002;7.788;2023-07-29T09:41:25;98659.50;;;27.33;100.00
5595;BME280;1003;48.002;7.788;2023-07-29T09:43:57;98639.41;;;27.46;100.00
5595;BME280;1003;48.002;7.788;2023-07-29T09:46:32;98652.19;;;27.67;100.00
5595;BME280;1003;48.002;7.788;2023-07-29T09:49:03;98648.53;;;27.70;100.00
5595;BME280;1003;48.002;7.788;2023-07-29T09:51:30;98651.78;;;27.82;100.00
5595;BME280;1003;48.002;7.788;2023-07-29T09:54:03;98653.75;;;28.17;100.00
5595;BME280;1003;48.002;7.788;2023-07-29T09:56:32;98651.34;;;28.06;100.00
5595;BME280;1003;48.002;7.788;2023-07-29T09:58:59;98660.16;;;28.13;100.00
5595;BME280;1003;48.002;7.788;2023-07-29T10:01:26;98655.00;;;28.03;100.00
5595;BME280;1003;48.002;7.788;2023-07-29T10:03:55;98660.88;;;27.86;100.00
5595;BME280;1003;48.002;7.788;2023-07-29T10:06:26;98705.75;;;27.75;100.00
5595;BME280;1003;48.002;7.788;2023-07-29T10:08:55;98680.44;;;27.50;100.00
5595;BME280;1003;48.002;7.788;2023-07-29T10:11:24;98690.09;;;27.67;100.00
5595;BME280;1003;48.002;7.788;2023-07-29T10:13:53;98688.91;;;27.71;100.00
5595;BME280;1003;48.002;7.788;2023-07-29T10:16:22;98685.50;;;27.80;100.00
5595;BME280;1003;48.002;7.788;2023-07-29T10:18:53;98679.53;;;27.89;100.00
5595;BME280;1003;48.002;7.788;2023-07-29T10:21:22;98690.53;;;27.82;100.00
5595;BME280;1003;48.002;7.788;2023-07-29T10:23:56;98678.97;;;27.86;100.00
5595;BME280;1003;48.002;7.788;2023-07-29T10:26:31;98684.28;;;27.94;100.00
5595;BME280;1003;48.002;7.788;2023-07-29T10:29:04;98680.72;;;28.05;100.00
5595;BME280;1003;48.002;7.788;2023-07-29T10:31:35;98670.66;;;28.11;100.00
5595;BME280;1003;48.002;7.788;2023-07-29T10:34:04;98661.53;;;28.17;100.00
5595;BME280;1003;48.002;7.788;2023-07-29T10:36:32;98670.97;;;28.45;100.00
5595;BME280;1003;48.002;7.788;2023-07-29T10:38:59;98658.44;;;28.50;100.00
5595;BME280;1003;48.002;7.788;2023-07-29T10:41:54;98667.13;;;28.96;100.00
5595;BME280;1003;48.002;7.788;2023-07-29T10:44:48;98667.81;;;29.34;100.00
5595;BME280;1003;48.002;7.788;2023-07-29T10:47:18;98666.56;;;29.38;100.00
5595;BME280;1003;48.002;7.788;2023-07-29T10:49:49;98676.03;;;29.29;100.00
5595;BME280;1003;48.002;7.788;2023-07-29T10:52:40;98662.78;;;29.15;100.00
5595;BME280;1003;48.002;7.788;2023-07-29T10:55:25;98661.31;;;29.30;100.00
5595;BME280;1003;48.002;7.788;2023-07-29T10:58:04;98663.81;;;29.22;100.00
5595;BME280;1003;48.002;7.788;2023-07-29T11:00:33;98655.00;;;29.33;100.00
5595;BME280;1003;48.002;7.788;2023-07-29T11:03:02;98653.53;;;29.30;100.00
5595;BME280;1003;48.002;7.788;2023-07-29T11:05:48;98652.41;;;29.15;100.00
5595;BME280;1003;48.002;7.788;2023-07-29T11:08:21;98644.50;;;29.16;100.00
5595;BME280;1003;48.002;7.788;2023-07-29T11:11:04;98638.28;;;29.09;100.00
5595;BME280;1003;48.002;7.788;2023-07-29T11:13:33;98639.78;;;29.12;100.00
5595;BME280;1003;48.002;7.788;2023-07-29T11:16:05;98644.06;;;29.03;100.00
5595;BME280;1003;48.002;7.788;2023-07-29T11:18:34;98630.72;;;28.98;100.00
5595;BME280;1003;48.002;7.788;2023-07-29T11:21:03;98635.66;;;28.91;100.00
5595;BME280;1003;48.002;7.788;2023-07-29T11:23:33;98625.59;;;28.61;100.00
5595;BME280;1003;48.002;7.788;2023-07-29T11:26:02;98619.97;;;28.47;100.00
5595;BME280;1003;48.002;7.788;2023-07-29T11:28:30;98631.44;;;28.63;100.00
5595;BME280;1003;48.002;7.788;2023-07-29T11:30:57;98630.78;;;28.61;100.00
5595;BME280;1003;48.002;7.788;2023-07-29T11:33:27;98627.59;;;28.67;100.00
5595;BME280;1003;48.002;7.788;2023-07-29T11:35:54;98624.13;;;28.86;100.00
5595;BME280;1003;48.002;7.788;2023-07-29T11:38:22;98626.81;;;28.94;100.00
5595;BME280;1003;48.002;7.788;2023-07-29T11:40:59;98618.78;;;29.15;100.00
5595;BME280;1003;48.002;7.788;2023-07-29T11:43:28;98617.06;;;29.06;100.00
5595;BME280;1003;48.002;7.788;2023-07-29T11:45:55;98617.75;;;29.25;100.00
5595;BME280;1003;48.002;7.788;2023-07-29T11:48:32;98617.75;;;29.25;100.00
5595;BME280;1003;48.002;7.788;2023-07-29T11:51:02;98614.28;;;28.89;100.00
5595;BME280;1003;48.002;7.788;2023-07-29T11:53:29;98610.00;;;28.80;100.00
5595;BME280;1003;48.002;7.788;2023-07-29T11:55:58;98607.28;;;28.99;100.00
5595;BME280;1003;48.002;7.788;2023-07-29T11:58:26;98599.91;;;29.05;100.00
5595;BME280;1003;48.002;7.788;2023-07-29T12:00:56;98589.66;;;29.13;100.00
5595;BME280;1003;48.002;7.788;2023-07-29T12:03:25;98586.97;;;29.40;100.00
5595;BME280;1003;48.002;7.788;2023-07-29T12:05:54;98588.13;;;29.64;100.00
5595;BME280;1003;48.002;7.788;2023-07-29T12:08:22;98581.75;;;29.76;100.00
5595;BME280;1003;48.002;7.788;2023-07-29T12:10:49;98584.09;;;29.87;100.00
5595;BME280;1003;48.002;7.788;2023-07-29T12:13:16;98605.91;;;30.11;100.00
5595;BME280;1003;48.002;7.788;2023-07-29T12:15:43;98611.81;;;29.95;100.00
5595;BME280;1003;48.002;7.788;2023-07-29T12:18:12;98621.06;;;29.97;100.00
5595;BME280;1003;48.002;7.788;2023-07-29T12:20:41;98624.16;;;30.01;100.00
5595;BME280;1003;48.002;7.788;2023-07-29T12:23:09;98620.50;;;29.86;100.00
5595;BME280;1003;48.002;7.788;2023-07-29T12:25:37;98615.13;;;29.79;100.00
5595;BME280;1003;48.002;7.788;2023-07-29T12:28:06;98605.66;;;29.70;100.00
5595;BME280;1003;48.002;7.788;2023-07-29T12:30:33;98611.59;;;29.44;100.00
5595;BME280;1003;48.002;7.788;2023-07-29T12:33:00;98612.72;;;29.24;100.00
5595;BME280;1003;48.002;7.788;2023-07-29T12:35:36;98617.75;;;29.25;100.00
5595;BME280;1003;48.002;7.788;2023-07-29T12:38:03;98612.72;;;29.06;100.00
5595;BME280;1003;48.002;7.788;2023-07-29T12:40:32;98614.56;;;28.86;100.00
5595;BME280;1003;48.002;7.788;2023-07-29T12:42:59;98618.41;;;28.82;100.00
5595;BME280;1003;48.002;7.788;2023-07-29T12:45:26;98617.75;;;28.80;100.00
5595;BME280;1003;48.002;7.788;2023-07-29T12:47:55;98609.44;;;28.59;100.00
5595;BME280;1003;48.002;7.788;2023-07-29T12:50:22;98607.16;;;28.73;100.00
5595;BME280;1003;48.002;7.788;2023-07-29T12:52:49;98612.81;;;28.87;100.00
5595;BME280;1003;48.002;7.788;2023-07-29T12:55:16;98554.97;;;28.78;100.00
5595;BME280;1003;48.002;7.788;2023-07-29T12:57:44;98709.91;;;28.81;100.00
5595;BME280;1003;48.002;7.788;2023-07-29T13:00:12;98740.66;;;28.84;100.00
5595;BME280;1003;48.002;7.788;2023-07-29T13:02:39;98735.81;;;28.71;100.00
5595;BME280;1003;48.002;7.788;2023-07-29T13:05:11;98719.53;;;28.51;100.00
5595;BME280;1003;48.002;7.788;2023-07-29T13:07:39;98708.47;;;28.69;100.00
5595;BME280;1003;48.002;7.788;2023-07-29T13:10:08;98692.88;;;28.78;100.00
5595;BME280;1003;48.002;7.788;2023-07-29T13:12:35;98688.91;;;28.84;100.00
5595;BME280;1003;48.002;7.788;2023-07-29T13:15:06;98680.06;;;28.96;100.00
5595;BME280;1003;48.002;7.788;2023-07-29T13:17:33;98668.78;;;28.78;100.00
5595;BME280;1003;48.002;7.788;2023-07-29T13:20:00;98668.22;;;28.84;100.00
5595;BME280;1003;48.002;7.788;2023-07-29T13:22:27;98673.28;;;28.86;100.00
5595;BME280;1003;48.002;7.788;2023-07-29T13:24:54;98675.16;;;28.84;100.00